sensor_id;sensor_type;location;lat;lon;timestamp;P1;durP1;ratioP1;P2;durP2;ratioP2
14704;SDS011;7442;50.840;3.396;2023-08-21T00:00:42;3.50;;;1.50;;
14704;SDS011;7442;50.840;3.396;2023-08-21T00:03:28;3.72;;;1.55;;
14704;SDS011;7442;50.840;3.396;2023-08-21T00:06:14;3.65;;;1.67;;
14704;SDS011;7442;50.840;3.396;2023-08-21T00:09:01;2.70;;;1.35;;
14704;SDS011;7442;50.840;3.396;2023-08-21T00:11:48;3.90;;;1.40;;
14704;SDS011;7442;50.840;3.396;2023-08-21T00:14:34;3.90;;;1.47;;
14704;SDS011;7442;50.840;3.396;2023-08-21T00:17:20;4.10;;;1.30;;
14704;SDS011;7442;50.840;3.396;2023-08-21T00:20:06;2.33;;;1.25;;
14704;SDS011;7442;50.840;3.396;2023-08-21T00:22:53;4.50;;;1.40;;
14704;SDS011;7442;50.840;3.396;2023-08-21T00:25:39;2.67;;;1.10;;
14704;SDS011;7442;50.840;3.396;2023-08-21T00:28:29;2.65;;;1.20;;
14704;SDS011;7442;50.840;3.396;2023-08-21T00:31:17;4.37;;;1.52;;
14704;SDS011;7442;50.840;3.396;2023-08-21T00:34:03;3.33;;;1.30;;
14704;SDS011;7442;50.840;3.396;2023-08-21T00:36:49;3.08;;;1.40;;
14704;SDS011;7442;50.840;3.396;2023-08-21T00:39:35;2.83;;;1.35;;
14704;SDS011;7442;50.840;3.396;2023-08-21T00:42:22;4.78;;;1.77;;
14704;SDS011;7442;50.840;3.396;2023-08-21T00:45:08;2.72;;;1.60;;
14704;SDS011;7442;50.840;3.396;2023-08-21T00:47:55;4.05;;;1.30;;
14704;SDS011;7442;50.840;3.396;2023-08-21T00:50:43;1.85;;;1.10;;
14704;SDS011;7442;50.840;3.396;2023-08-21T00:53:31;2.77;;;1.45;;
14704;SDS011;7442;50.840;3.396;2023-08-21T00:56:17;2.70;;;1.42;;
14704;SDS011;7442;50.840;3.396;2023-08-21T00:59:04;2.40;;;1.37;;
14704;SDS011;7442;50.840;3.396;2023-08-21T01:01:50;2.60;;;1.25;;
14704;SDS011;7442;50.840;3.396;2023-08-21T01:04:37;3.60;;;1.70;;
14704;SDS011;7442;50.840;3.396;2023-08-21T01:07:24;4.15;;;1.42;;
14704;SDS011;7442;50.840;3.396;2023-08-21T01:10:35;4.83;;;1.60;;
14704;SDS011;7442;50.840;3.396;2023-08-21T01:13:18;5.35;;;1.42;;
14704;SDS011;7442;50.840;3.396;2023-08-21T01:16:07;3.87;;;1.20;;
14704;SDS011;7442;50.840;3.396;2023-08-21T01:18:54;3.42;;;1.25;;
14704;SDS011;7442;50.840;3.396;2023-08-21T01:21:42;3.95;;;1.55;;
14704;SDS011;7442;50.840;3.396;2023-08-21T01:24:28;2.15;;;1.30;;
14704;SDS011;7442;50.840;3.396;2023-08-21T01:27:15;3.35;;;1.15;;
14704;SDS011;7442;50.840;3.396;2023-08-21T01:30:01;2.77;;;1.50;;
14704;SDS011;7442;50.840;3.396;2023-08-21T01:35:46;3.72;;;1.50;;
14704;SDS011;7442;50.840;3.396;2023-08-21T01:38:33;2.27;;;1.25;;
14704;SDS011;7442;50.840;3.396;2023-08-21T01:41:22;3.52;;;1.10;;
14704;SDS011;7442;50.840;3.396;2023-08-21T01:44:11;4.08;;;1.50;;
14704;SDS011;7442;50.840;3.396;2023-08-21T01:46:57;2.17;;;1.20;;
14704;SDS011;7442;50.840;3.396;2023-08-21T01:49:45;2.92;;;1.40;;
14704;SDS011;7442;50.840;3.396;2023-08-21T01:52:32;1.95;;;1.30;;
14704;SDS011;7442;50.840;3.396;2023-08-21T01:55:18;2.60;;;1.70;;
14704;SDS011;7442;50.840;3.396;2023-08-21T01:58:04;3.58;;;1.20;;
14704;SDS011;7442;50.840;3.396;2023-08-21T02:00:50;2.77;;;1.32;;
14704;SDS011;7442;50.840;3.396;2023-08-21T02:03:37;3.05;;;1.42;;
14704;SDS011;7442;50.840;3.396;2023-08-21T02:06:23;2.17;;;1.37;;
14704;SDS011;7442;50.840;3.396;2023-08-21T02:09:10;2.05;;;1.42;;
14704;SDS011;7442;50.840;3.396;2023-08-21T02:11:56;3.65;;;1.50;;
14704;SDS011;7442;50.840;3.396;2023-08-21T02:14:42;2.70;;;1.40;;
14704;SDS011;7442;50.840;3.396;2023-08-21T02:17:29;2.47;;;1.42;;
14704;SDS011;7442;50.840;3.396;2023-08-21T02:20:17;2.00;;;1.50;;
14704;SDS011;7442;50.840;3.396;2023-08-21T02:23:03;2.90;;;1.60;;
14704;SDS011;7442;50.840;3.396;2023-08-21T02:25:50;2.42;;;1.32;;
14704;SDS011;7442;50.840;3.396;2023-08-21T02:28:37;3.60;;;1.42;;
14704;SDS011;7442;50.840;3.396;2023-08-21T02:31:23;2.50;;;1.37;;
14704;SDS011;7442;50.840;3.396;2023-08-21T02:34:09;2.08;;;1.20;;
14704;SDS011;7442;50.840;3.396;2023-08-21T02:36:56;3.40;;;1.35;;
14704;SDS011;7442;50.840;3.396;2023-08-21T02:39:43;1.85;;;1.27;;
14704;SDS011;7442;50.840;3.396;2023-08-21T02:42:29;2.02;;;1.27;;
14704;SDS011;7442;50.840;3.396;2023-08-21T02:45:16;2.65;;;1.27;;
14704;SDS011;7442;50.840;3.396;2023-08-21T02:48:03;2.25;;;1.27;;
14704;SDS011;7442;50.840;3.396;2023-08-21T02:50:50;4.20;;;1.57;;
14704;SDS011;7442;50.840;3.396;2023-08-21T02:53:36;1.95;;;1.30;;
14704;SDS011;7442;50.840;3.396;2023-08-21T02:56:23;3.95;;;1.52;;
14704;SDS011;7442;50.840;3.396;2023-08-21T02:59:09;2.15;;;1.30;;
14704;SDS011;7442;50.840;3.396;2023-08-21T03:04:40;2.13;;;1.20;;
14704;SDS011;7442;50.840;3.396;2023-08-21T03:07:26;2.10;;;1.20;;
14704;SDS011;7442;50.840;3.396;2023-08-21T03:10:13;3.12;;;1.42;;
14704;SDS011;7442;50.840;3.396;2023-08-21T03:12:59;2.17;;;1.60;;
14704;SDS011;7442;50.840;3.396;2023-08-21T03:15:46;2.37;;;1.27;;
14704;SDS011;7442;50.840;3.396;2023-08-21T03:18:34;2.22;;;1.30;;
14704;SDS011;7442;50.840;3.396;2023-08-21T03:21:22;2.83;;;1.35;;
14704;SDS011;7442;50.840;3.396;2023-08-21T03:24:09;2.62;;;1.30;;
14704;SDS011;7442;50.840;3.396;2023-08-21T03:26:58;3.35;;;1.15;;
14704;SDS011;7442;50.840;3.396;2023-08-21T03:29:45;2.65;;;1.32;;
14704;SDS011;7442;50.840;3.396;2023-08-21T03:32:33;2.95;;;1.35;;
14704;SDS011;7442;50.840;3.396;2023-08-21T03:35:20;2.22;;;1.50;;
14704;SDS011;7442;50.840;3.396;2023-08-21T03:38:06;2.77;;;1.42;;
14704;SDS011;7442;50.840;3.396;2023-08-21T03:40:52;3.83;;;1.47;;
14704;SDS011;7442;50.840;3.396;2023-08-21T03:43:39;2.42;;;1.25;;
14704;SDS011;7442;50.840;3.396;2023-08-21T03:46:25;2.58;;;1.57;;
14704;SDS011;7442;50.840;3.396;2023-08-21T03:49:11;1.47;;;1.25;;
14704;SDS011;7442;50.840;3.396;2023-08-21T03:51:57;3.08;;;1.40;;
14704;SDS011;7442;50.840;3.396;2023-08-21T03:54:44;3.05;;;1.50;;
14704;SDS011;7442;50.840;3.396;2023-08-21T03:57:30;3.22;;;1.50;;
14704;SDS011;7442;50.840;3.396;2023-08-21T04:00:16;2.58;;;1.20;;
14704;SDS011;7442;50.840;3.396;2023-08-21T04:03:03;2.67;;;1.40;;
14704;SDS011;7442;50.840;3.396;2023-08-21T04:05:49;2.65;;;1.30;;
14704;SDS011;7442;50.840;3.396;2023-08-21T04:08:37;1.90;;;1.30;;
14704;SDS011;7442;50.840;3.396;2023-08-21T04:11:24;2.45;;;1.00;;
14704;SDS011;7442;50.840;3.396;2023-08-21T04:14:10;3.27;;;1.42;;
14704;SDS011;7442;50.840;3.396;2023-08-21T04:16:56;2.42;;;1.32;;
14704;SDS011;7442;50.840;3.396;2023-08-21T04:19:42;2.15;;;1.25;;
14704;SDS011;7442;50.840;3.396;2023-08-21T04:22:28;3.15;;;1.50;;
14704;SDS011;7442;50.840;3.396;2023-08-21T04:25:15;2.45;;;1.55;;
14704;SDS011;7442;50.840;3.396;2023-08-21T04:28:02;2.98;;;1.45;;
14704;SDS011;7442;50.840;3.396;2023-08-21T04:30:49;3.08;;;1.45;;
14704;SDS011;7442;50.840;3.396;2023-08-21T04:33:35;2.33;;;1.15;;
14704;SDS011;7442;50.840;3.396;2023-08-21T04:36:22;2.02;;;1.22;;
14704;SDS011;7442;50.840;3.396;2023-08-21T04:39:08;2.12;;;1.20;;
14704;SDS011;7442;50.840;3.396;2023-08-21T04:41:54;2.42;;;1.40;;
14704;SDS011;7442;50.840;3.396;2023-08-21T04:44:41;2.22;;;1.30;;
14704;SDS011;7442;50.840;3.396;2023-08-21T04:47:27;2.37;;;1.10;;
14704;SDS011;7442;50.840;3.396;2023-08-21T04:50:13;2.12;;;1.40;;
14704;SDS011;7442;50.840;3.396;2023-08-21T04:53:00;3.85;;;1.40;;
14704;SDS011;7442;50.840;3.396;2023-08-21T04:55:46;2.55;;;1.25;;
14704;SDS011;7442;50.840;3.396;2023-08-21T04:58:32;2.62;;;1.27;;
14704;SDS011;7442;50.840;3.396;2023-08-21T05:01:18;2.95;;;1.30;;
14704;SDS011;7442;50.840;3.396;2023-08-21T05:04:04;2.65;;;1.10;;
14704;SDS011;7442;50.840;3.396;2023-08-21T05:06:51;1.98;;;1.07;;
14704;SDS011;7442;50.840;3.396;2023-08-21T05:09:38;2.42;;;1.30;;
14704;SDS011;7442;50.840;3.396;2023-08-21T05:12:24;2.20;;;1.40;;
14704;SDS011;7442;50.840;3.396;2023-08-21T05:15:11;2.33;;;1.47;;
14704;SDS011;7442;50.840;3.396;2023-08-21T05:17:57;2.58;;;1.70;;
14704;SDS011;7442;50.840;3.396;2023-08-21T05:20:43;2.37;;;1.32;;
14704;SDS011;7442;50.840;3.396;2023-08-21T05:23:30;3.02;;;1.50;;
14704;SDS011;7442;50.840;3.396;2023-08-21T05:26:16;6.83;;;1.72;;
14704;SDS011;7442;50.840;3.396;2023-08-21T05:29:02;3.35;;;1.67;;
14704;SDS011;7442;50.840;3.396;2023-08-21T05:31:49;3.95;;;1.50;;
14704;SDS011;7442;50.840;3.396;2023-08-21T05:34:35;3.92;;;1.32;;
14704;SDS011;7442;50.840;3.396;2023-08-21T05:37:22;1.82;;;1.00;;
14704;SDS011;7442;50.840;3.396;2023-08-21T05:40:08;2.90;;;1.40;;
14704;SDS011;7442;50.840;3.396;2023-08-21T05:42:55;3.95;;;1.55;;
14704;SDS011;7442;50.840;3.396;2023-08-21T05:45:41;5.25;;;1.98;;
14704;SDS011;7442;50.840;3.396;2023-08-21T05:48:28;4.40;;;1.82;;
14704;SDS011;7442;50.840;3.396;2023-08-21T05:51:14;5.83;;;1.92;;
14704;SDS011;7442;50.840;3.396;2023-08-21T05:54:01;3.65;;;1.80;;
14704;SDS011;7442;50.840;3.396;2023-08-21T05:56:47;5.12;;;1.50;;
14704;SDS011;7442;50.840;3.396;2023-08-21T05:59:33;3.12;;;1.55;;
14704;SDS011;7442;50.840;3.396;2023-08-21T06:02:19;6.92;;;2.75;;
14704;SDS011;7442;50.840;3.396;2023-08-21T06:05:05;18.48;;;8.88;;
14704;SDS011;7442;50.840;3.396;2023-08-21T06:07:51;20.80;;;10.05;;
14704;SDS011;7442;50.840;3.396;2023-08-21T06:10:38;17.48;;;10.15;;
14704;SDS011;7442;50.840;3.396;2023-08-21T06:13:24;20.90;;;10.23;;
14704;SDS011;7442;50.840;3.396;2023-08-21T06:16:11;20.05;;;10.20;;
14704;SDS011;7442;50.840;3.396;2023-08-21T06:18:57;22.98;;;10.32;;
14704;SDS011;7442;50.840;3.396;2023-08-21T06:21:44;17.52;;;10.60;;
14704;SDS011;7442;50.840;3.396;2023-08-21T06:24:30;21.52;;;10.28;;
14704;SDS011;7442;50.840;3.396;2023-08-21T06:27:16;24.43;;;10.80;;
14704;SDS011;7442;50.840;3.396;2023-08-21T06:30:03;22.85;;;12.23;;
14704;SDS011;7442;50.840;3.396;2023-08-21T06:32:50;24.77;;;14.50;;
14704;SDS011;7442;50.840;3.396;2023-08-21T06:35:36;27.40;;;15.90;;
14704;SDS011;7442;50.840;3.396;2023-08-21T06:38:23;30.92;;;16.20;;
14704;SDS011;7442;50.840;3.396;2023-08-21T06:41:09;31.82;;;17.62;;
14704;SDS011;7442;50.840;3.396;2023-08-21T06:43:56;40.30;;;19.25;;
14704;SDS011;7442;50.840;3.396;2023-08-21T06:46:43;41.40;;;21.23;;
14704;SDS011;7442;50.840;3.396;2023-08-21T06:49:29;55.15;;;21.45;;
14704;SDS011;7442;50.840;3.396;2023-08-21T06:52:16;42.95;;;21.60;;
14704;SDS011;7442;50.840;3.396;2023-08-21T06:55:03;43.83;;;22.42;;
14704;SDS011;7442;50.840;3.396;2023-08-21T06:57:50;39.70;;;22.82;;
14704;SDS011;7442;50.840;3.396;2023-08-21T07:00:37;45.43;;;24.92;;
14704;SDS011;7442;50.840;3.396;2023-08-21T07:03:23;47.93;;;24.55;;
14704;SDS011;7442;50.840;3.396;2023-08-21T07:06:10;49.38;;;25.77;;
14704;SDS011;7442;50.840;3.396;2023-08-21T07:08:56;55.58;;;27.37;;
14704;SDS011;7442;50.840;3.396;2023-08-21T07:11:43;55.58;;;28.30;;
14704;SDS011;7442;50.840;3.396;2023-08-21T07:14:29;52.58;;;27.27;;
14704;SDS011;7442;50.840;3.396;2023-08-21T07:17:15;55.58;;;28.00;;
14704;SDS011;7442;50.840;3.396;2023-08-21T07:20:02;56.30;;;27.20;;
14704;SDS011;7442;50.840;3.396;2023-08-21T07:22:49;52.35;;;27.98;;
14704;SDS011;7442;50.840;3.396;2023-08-21T07:25:35;56.28;;;27.77;;
14704;SDS011;7442;50.840;3.396;2023-08-21T07:28:21;55.63;;;27.82;;
14704;SDS011;7442;50.840;3.396;2023-08-21T07:31:08;56.10;;;28.02;;
14704;SDS011;7442;50.840;3.396;2023-08-21T07:33:54;49.65;;;26.23;;
14704;SDS011;7442;50.840;3.396;2023-08-21T07:36:47;53.15;;;28.05;;
14704;SDS011;7442;50.840;3.396;2023-08-21T07:39:34;50.03;;;27.62;;
14704;SDS011;7442;50.840;3.396;2023-08-21T07:42:21;55.88;;;28.25;;
14704;SDS011;7442;50.840;3.396;2023-08-21T07:45:07;54.45;;;27.73;;
14704;SDS011;7442;50.840;3.396;2023-08-21T07:47:54;47.53;;;24.55;;
14704;SDS011;7442;50.840;3.396;2023-08-21T07:50:40;45.40;;;25.72;;
14704;SDS011;7442;50.840;3.396;2023-08-21T07:53:27;51.88;;;27.48;;
14704;SDS011;7442;50.840;3.396;2023-08-21T07:56:14;47.48;;;26.73;;
14704;SDS011;7442;50.840;3.396;2023-08-21T07:59:02;51.18;;;27.95;;
14704;SDS011;7442;50.840;3.396;2023-08-21T08:01:50;45.48;;;26.30;;
14704;SDS011;7442;50.840;3.396;2023-08-21T08:04:36;51.08;;;25.65;;
14704;SDS011;7442;50.840;3.396;2023-08-21T08:07:22;42.58;;;25.75;;
14704;SDS011;7442;50.840;3.396;2023-08-21T08:10:09;47.20;;;25.27;;
14704;SDS011;7442;50.840;3.396;2023-08-21T08:12:55;51.15;;;27.95;;
14704;SDS011;7442;50.840;3.396;2023-08-21T08:15:43;43.42;;;27.10;;
14704;SDS011;7442;50.840;3.396;2023-08-21T08:18:30;48.80;;;26.85;;
14704;SDS011;7442;50.840;3.396;2023-08-21T08:21:16;47.33;;;26.97;;
14704;SDS011;7442;50.840;3.396;2023-08-21T08:24:02;46.35;;;27.05;;
14704;SDS011;7442;50.840;3.396;2023-08-21T08:26:49;50.45;;;28.92;;
14704;SDS011;7442;50.840;3.396;2023-08-21T08:29:36;49.03;;;30.25;;
14704;SDS011;7442;50.840;3.396;2023-08-21T08:32:22;46.85;;;29.25;;
14704;SDS011;7442;50.840;3.396;2023-08-21T08:35:08;56.28;;;30.88;;
14704;SDS011;7442;50.840;3.396;2023-08-21T08:37:55;54.53;;;31.50;;
14704;SDS011;7442;50.840;3.396;2023-08-21T08:40:45;54.90;;;32.67;;
14704;SDS011;7442;50.840;3.396;2023-08-21T08:43:35;50.15;;;31.07;;
14704;SDS011;7442;50.840;3.396;2023-08-21T08:46:24;51.70;;;30.70;;
14704;SDS011;7442;50.840;3.396;2023-08-21T08:49:12;51.63;;;30.80;;
14704;SDS011;7442;50.840;3.396;2023-08-21T08:52:02;51.15;;;31.97;;
14704;SDS011;7442;50.840;3.396;2023-08-21T08:54:49;50.28;;;31.23;;
14704;SDS011;7442;50.840;3.396;2023-08-21T08:57:40;47.95;;;29.85;;
14704;SDS011;7442;50.840;3.396;2023-08-21T09:00:26;46.33;;;29.40;;
14704;SDS011;7442;50.840;3.396;2023-08-21T09:03:13;48.33;;;30.77;;
14704;SDS011;7442;50.840;3.396;2023-08-21T09:06:01;48.02;;;29.18;;
14704;SDS011;7442;50.840;3.396;2023-08-21T09:08:54;44.88;;;28.25;;
14704;SDS011;7442;50.840;3.396;2023-08-21T09:11:42;38.95;;;26.62;;
14704;SDS011;7442;50.840;3.396;2023-08-21T09:14:29;45.17;;;27.05;;
14704;SDS011;7442;50.840;3.396;2023-08-21T09:17:16;50.00;;;28.23;;
14704;SDS011;7442;50.840;3.396;2023-08-21T09:20:05;40.67;;;25.50;;
14704;SDS011;7442;50.840;3.396;2023-08-21T09:22:53;38.83;;;25.20;;
14704;SDS011;7442;50.840;3.396;2023-08-21T09:25:40;40.95;;;26.07;;
14704;SDS011;7442;50.840;3.396;2023-08-21T09:28:28;39.42;;;25.43;;
14704;SDS011;7442;50.840;3.396;2023-08-21T09:31:23;37.13;;;23.45;;
14704;SDS011;7442;50.840;3.396;2023-08-21T09:34:17;34.38;;;23.27;;
14704;SDS011;7442;50.840;3.396;2023-08-21T09:37:05;27.42;;;22.15;;
14704;SDS011;7442;50.840;3.396;2023-08-21T09:39:53;37.80;;;22.75;;
14704;SDS011;7442;50.840;3.396;2023-08-21T09:42:39;29.15;;;21.23;;
14704;SDS011;7442;50.840;3.396;2023-08-21T09:45:26;30.27;;;21.62;;
14704;SDS011;7442;50.840;3.396;2023-08-21T09:48:14;26.62;;;20.32;;
14704;SDS011;7442;50.840;3.396;2023-08-21T09:51:01;32.13;;;20.80;;
14704;SDS011;7442;50.840;3.396;2023-08-21T09:53:49;31.48;;;21.05;;
14704;SDS011;7442;50.840;3.396;2023-08-21T09:56:36;29.75;;;20.25;;
14704;SDS011;7442;50.840;3.396;2023-08-21T09:59:23;32.95;;;19.20;;
14704;SDS011;7442;50.840;3.396;2023-08-21T10:02:09;25.90;;;17.75;;
14704;SDS011;7442;50.840;3.396;2023-08-21T10:04:56;22.62;;;17.67;;
14704;SDS011;7442;50.840;3.396;2023-08-21T10:07:47;25.37;;;16.85;;
14704;SDS011;7442;50.840;3.396;2023-08-21T10:10:36;19.12;;;14.23;;
14704;SDS011;7442;50.840;3.396;2023-08-21T10:13:23;27.75;;;15.00;;
14704;SDS011;7442;50.840;3.396;2023-08-21T10:16:09;22.37;;;17.82;;
14704;SDS011;7442;50.840;3.396;2023-08-21T10:18:57;26.65;;;17.05;;
14704;SDS011;7442;50.840;3.396;2023-08-21T10:21:47;19.85;;;15.63;;
14704;SDS011;7442;50.840;3.396;2023-08-21T10:24:35;18.30;;;13.60;;
14704;SDS011;7442;50.840;3.396;2023-08-21T10:27:34;17.62;;;11.57;;
14704;SDS011;7442;50.840;3.396;2023-08-21T10:30:19;17.37;;;10.18;;
14704;SDS011;7442;50.840;3.396;2023-08-21T10:33:11;16.00;;;10.10;;
14704;SDS011;7442;50.840;3.396;2023-08-21T10:35:57;21.25;;;13.50;;
14704;SDS011;7442;50.840;3.396;2023-08-21T10:39:00;14.50;;;11.95;;
14704;SDS011;7442;50.840;3.396;2023-08-21T10:42:00;15.50;;;9.90;;
14704;SDS011;7442;50.840;3.396;2023-08-21T10:44:50;12.47;;;8.08;;
14704;SDS011;7442;50.840;3.396;2023-08-21T10:47:42;15.25;;;7.78;;
14704;SDS011;7442;50.840;3.396;2023-08-21T10:50:30;12.63;;;7.55;;
14704;SDS011;7442;50.840;3.396;2023-08-21T10:53:18;10.95;;;6.20;;
14704;SDS011;7442;50.840;3.396;2023-08-21T10:56:05;10.43;;;5.37;;
14704;SDS011;7442;50.840;3.396;2023-08-21T10:58:52;10.98;;;5.60;;
14704;SDS011;7442;50.840;3.396;2023-08-21T11:01:48;12.05;;;5.35;;
14704;SDS011;7442;50.840;3.396;2023-08-21T11:04:39;8.35;;;5.30;;
14704;SDS011;7442;50.840;3.396;2023-08-21T11:07:28;9.58;;;5.15;;
14704;SDS011;7442;50.840;3.396;2023-08-21T11:10:21;8.63;;;4.45;;
14704;SDS011;7442;50.840;3.396;2023-08-21T11:13:09;8.10;;;4.50;;
14704;SDS011;7442;50.840;3.396;2023-08-21T11:15:59;7.33;;;4.33;;
14704;SDS011;7442;50.840;3.396;2023-08-21T11:18:50;5.30;;;3.80;;
14704;SDS011;7442;50.840;3.396;2023-08-21T11:21:36;5.22;;;3.75;;
14704;SDS011;7442;50.840;3.396;2023-08-21T11:24:22;4.75;;;3.72;;
14704;SDS011;7442;50.840;3.396;2023-08-21T11:27:11;7.35;;;3.60;;
14704;SDS011;7442;50.840;3.396;2023-08-21T11:29:59;6.33;;;3.05;;
14704;SDS011;7442;50.840;3.396;2023-08-21T11:32:47;6.72;;;3.40;;
14704;SDS011;7442;50.840;3.396;2023-08-21T11:35:33;6.15;;;3.72;;
14704;SDS011;7442;50.840;3.396;2023-08-21T11:38:21;6.53;;;3.50;;
14704;SDS011;7442;50.840;3.396;2023-08-21T11:41:10;8.45;;;3.30;;
14704;SDS011;7442;50.840;3.396;2023-08-21T11:44:02;8.00;;;3.77;;
14704;SDS011;7442;50.840;3.396;2023-08-21T11:46:52;6.85;;;3.10;;
14704;SDS011;7442;50.840;3.396;2023-08-21T11:49:39;7.42;;;3.40;;
14704;SDS011;7442;50.840;3.396;2023-08-21T11:52:29;8.83;;;3.20;;
14704;SDS011;7442;50.840;3.396;2023-08-21T11:55:16;8.33;;;3.47;;
14704;SDS011;7442;50.840;3.396;2023-08-21T11:58:03;8.08;;;3.80;;
14704;SDS011;7442;50.840;3.396;2023-08-21T12:00:50;4.17;;;3.00;;
14704;SDS011;7442;50.840;3.396;2023-08-21T12:03:38;6.03;;;3.00;;
14704;SDS011;7442;50.840;3.396;2023-08-21T12:06:25;10.98;;;3.37;;
14704;SDS011;7442;50.840;3.396;2023-08-21T12:09:14;8.85;;;2.98;;
14704;SDS011;7442;50.840;3.396;2023-08-21T12:12:00;5.80;;;3.30;;
14704;SDS011;7442;50.840;3.396;2023-08-21T12:14:47;9.80;;;3.47;;
14704;SDS011;7442;50.840;3.396;2023-08-21T12:17:33;8.48;;;3.27;;
14704;SDS011;7442;50.840;3.396;2023-08-21T12:20:20;10.13;;;3.35;;
14704;SDS011;7442;50.840;3.396;2023-08-21T12:23:06;12.18;;;3.05;;
14704;SDS011;7442;50.840;3.396;2023-08-21T12:25:53;8.63;;;2.92;;
14704;SDS011;7442;50.840;3.396;2023-08-21T12:28:49;7.83;;;3.25;;
14704;SDS011;7442;50.840;3.396;2023-08-21T12:31:36;8.03;;;3.83;;
14704;SDS011;7442;50.840;3.396;2023-08-21T12:34:23;6.58;;;3.20;;
14704;SDS011;7442;50.840;3.396;2023-08-21T12:37:09;6.17;;;3.00;;
14704;SDS011;7442;50.840;3.396;2023-08-21T12:39:55;5.40;;;2.58;;
14704;SDS011;7442;50.840;3.396;2023-08-21T12:42:41;6.45;;;2.50;;
14704;SDS011;7442;50.840;3.396;2023-08-21T12:45:28;6.15;;;2.60;;
14704;SDS011;7442;50.840;3.396;2023-08-21T12:48:14;7.85;;;3.27;;
14704;SDS011;7442;50.840;3.396;2023-08-21T12:51:01;5.85;;;2.42;;
14704;SDS011;7442;50.840;3.396;2023-08-21T12:53:49;6.17;;;2.65;;
14704;SDS011;7442;50.840;3.396;2023-08-21T12:56:35;5.65;;;2.67;;
14704;SDS011;7442;50.840;3.396;2023-08-21T12:59:21;6.67;;;2.80;;
14704;SDS011;7442;50.840;3.396;2023-08-21T13:02:08;4.53;;;2.95;;
14704;SDS011;7442;50.840;3.396;2023-08-21T13:04:55;3.25;;;2.55;;
14704;SDS011;7442;50.840;3.396;2023-08-21T13:07:41;3.52;;;2.50;;
14704;SDS011;7442;50.840;3.396;2023-08-21T13:10:27;7.28;;;2.75;;
14704;SDS011;7442;50.840;3.396;2023-08-21T13:13:14;8.38;;;3.27;;
14704;SDS011;7442;50.840;3.396;2023-08-21T13:16:00;6.33;;;3.20;;
14704;SDS011;7442;50.840;3.396;2023-08-21T13:18:48;6.15;;;3.33;;
14704;SDS011;7442;50.840;3.396;2023-08-21T13:21:35;9.20;;;3.27;;
14704;SDS011;7442;50.840;3.396;2023-08-21T13:24:21;8.35;;;3.20;;
14704;SDS011;7442;50.840;3.396;2023-08-21T13:27:08;9.48;;;3.33;;
14704;SDS011;7442;50.840;3.396;2023-08-21T13:29:54;12.85;;;3.27;;
14704;SDS011;7442;50.840;3.396;2023-08-21T13:32:41;6.35;;;3.02;;
14704;SDS011;7442;50.840;3.396;2023-08-21T13:35:27;8.48;;;3.67;;
14704;SDS011;7442;50.840;3.396;2023-08-21T13:38:14;13.55;;;4.00;;
14704;SDS011;7442;50.840;3.396;2023-08-21T13:41:00;8.75;;;3.47;;
14704;SDS011;7442;50.840;3.396;2023-08-21T13:43:46;5.87;;;3.15;;
14704;SDS011;7442;50.840;3.396;2023-08-21T13:46:34;12.73;;;3.42;;
14704;SDS011;7442;50.840;3.396;2023-08-21T13:49:20;6.42;;;3.02;;
14704;SDS011;7442;50.840;3.396;2023-08-21T13:52:07;8.70;;;3.37;;
14704;SDS011;7442;50.840;3.396;2023-08-21T13:54:54;10.40;;;2.85;;
14704;SDS011;7442;50.840;3.396;2023-08-21T13:57:40;9.13;;;3.10;;
14704;SDS011;7442;50.840;3.396;2023-08-21T14:00:27;6.25;;;3.20;;
14704;SDS011;7442;50.840;3.396;2023-08-21T14:03:13;5.00;;;2.50;;
14704;SDS011;7442;50.840;3.396;2023-08-21T14:05:59;8.80;;;2.77;;
14704;SDS011;7442;50.840;3.396;2023-08-21T14:08:46;7.03;;;2.87;;
14704;SDS011;7442;50.840;3.396;2023-08-21T14:11:33;6.33;;;2.50;;
14704;SDS011;7442;50.840;3.396;2023-08-21T14:14:20;8.98;;;2.77;;
14704;SDS011;7442;50.840;3.396;2023-08-21T14:17:06;6.37;;;2.50;;
14704;SDS011;7442;50.840;3.396;2023-08-21T14:19:53;6.12;;;2.45;;
14704;SDS011;7442;50.840;3.396;2023-08-21T14:22:42;5.80;;;2.62;;
14704;SDS011;7442;50.840;3.396;2023-08-21T14:25:29;4.47;;;2.27;;
14704;SDS011;7442;50.840;3.396;2023-08-21T14:28:15;4.12;;;2.20;;
14704;SDS011;7442;50.840;3.396;2023-08-21T14:31:01;6.95;;;2.47;;
14704;SDS011;7442;50.840;3.396;2023-08-21T14:33:48;6.05;;;2.60;;
14704;SDS011;7442;50.840;3.396;2023-08-21T14:36:34;5.15;;;2.05;;
14704;SDS011;7442;50.840;3.396;2023-08-21T14:39:21;6.12;;;2.60;;
14704;SDS011;7442;50.840;3.396;2023-08-21T14:42:08;3.00;;;2.02;;
14704;SDS011;7442;50.840;3.396;2023-08-21T14:44:55;5.30;;;1.98;;
14704;SDS011;7442;50.840;3.396;2023-08-21T14:47:41;3.55;;;2.25;;
14704;SDS011;7442;50.840;3.396;2023-08-21T14:50:28;4.58;;;2.35;;
14704;SDS011;7442;50.840;3.396;2023-08-21T14:53:14;5.60;;;1.77;;
14704;SDS011;7442;50.840;3.396;2023-08-21T14:56:00;6.15;;;1.70;;
14704;SDS011;7442;50.840;3.396;2023-08-21T14:58:48;3.15;;;1.70;;
14704;SDS011;7442;50.840;3.396;2023-08-21T15:01:34;5.28;;;1.90;;
14704;SDS011;7442;50.840;3.396;2023-08-21T15:04:20;2.75;;;1.75;;
14704;SDS011;7442;50.840;3.396;2023-08-21T15:07:06;5.58;;;1.90;;
14704;SDS011;7442;50.840;3.396;2023-08-21T15:09:53;5.17;;;1.82;;
14704;SDS011;7442;50.840;3.396;2023-08-21T15:12:39;4.20;;;1.70;;
14704;SDS011;7442;50.840;3.396;2023-08-21T15:15:26;3.65;;;1.70;;
14704;SDS011;7442;50.840;3.396;2023-08-21T15:18:12;7.20;;;1.62;;
14704;SDS011;7442;50.840;3.396;2023-08-21T15:20:59;5.03;;;1.65;;
14704;SDS011;7442;50.840;3.396;2023-08-21T15:23:46;4.35;;;1.65;;
14704;SDS011;7442;50.840;3.396;2023-08-21T15:26:33;4.15;;;1.52;;
14704;SDS011;7442;50.840;3.396;2023-08-21T15:29:19;5.22;;;1.32;;
14704;SDS011;7442;50.840;3.396;2023-08-21T15:32:06;2.90;;;1.60;;
14704;SDS011;7442;50.840;3.396;2023-08-21T15:34:52;2.72;;;1.30;;
14704;SDS011;7442;50.840;3.396;2023-08-21T15:37:39;4.70;;;1.65;;
14704;SDS011;7442;50.840;3.396;2023-08-21T15:40:26;3.90;;;1.40;;
14704;SDS011;7442;50.840;3.396;2023-08-21T15:43:12;5.12;;;1.62;;
14704;SDS011;7442;50.840;3.396;2023-08-21T15:46:00;7.30;;;1.37;;
14704;SDS011;7442;50.840;3.396;2023-08-21T15:48:50;4.20;;;1.62;;
14704;SDS011;7442;50.840;3.396;2023-08-21T15:51:37;3.10;;;1.20;;
14704;SDS011;7442;50.840;3.396;2023-08-21T15:54:29;3.60;;;1.35;;
14704;SDS011;7442;50.840;3.396;2023-08-21T15:57:19;4.42;;;1.57;;
14704;SDS011;7442;50.840;3.396;2023-08-21T16:00:07;4.05;;;1.52;;
14704;SDS011;7442;50.840;3.396;2023-08-21T16:02:54;3.17;;;1.22;;
14704;SDS011;7442;50.840;3.396;2023-08-21T16:05:40;4.05;;;1.30;;
14704;SDS011;7442;50.840;3.396;2023-08-21T16:08:26;2.27;;;1.02;;
14704;SDS011;7442;50.840;3.396;2023-08-21T16:11:13;3.35;;;1.20;;
14704;SDS011;7442;50.840;3.396;2023-08-21T16:14:00;2.12;;;1.15;;
14704;SDS011;7442;50.840;3.396;2023-08-21T16:16:48;2.75;;;1.27;;
14704;SDS011;7442;50.840;3.396;2023-08-21T16:19:35;3.47;;;1.32;;
14704;SDS011;7442;50.840;3.396;2023-08-21T16:22:22;2.60;;;1.17;;
14704;SDS011;7442;50.840;3.396;2023-08-21T16:25:08;5.72;;;1.40;;
14704;SDS011;7442;50.840;3.396;2023-08-21T16:27:56;5.22;;;1.27;;
14704;SDS011;7442;50.840;3.396;2023-08-21T16:30:42;5.87;;;1.55;;
14704;SDS011;7442;50.840;3.396;2023-08-21T16:33:28;3.02;;;1.10;;
14704;SDS011;7442;50.840;3.396;2023-08-21T16:36:15;3.72;;;1.27;;
14704;SDS011;7442;50.840;3.396;2023-08-21T16:39:01;4.35;;;1.40;;
14704;SDS011;7442;50.840;3.396;2023-08-21T16:41:48;4.80;;;1.40;;
14704;SDS011;7442;50.840;3.396;2023-08-21T16:44:34;7.53;;;1.42;;
14704;SDS011;7442;50.840;3.396;2023-08-21T16:47:21;3.72;;;1.37;;
14704;SDS011;7442;50.840;3.396;2023-08-21T16:50:08;7.28;;;1.45;;
14704;SDS011;7442;50.840;3.396;2023-08-21T16:52:55;4.90;;;1.47;;
14704;SDS011;7442;50.840;3.396;2023-08-21T16:55:42;5.83;;;1.70;;
14704;SDS011;7442;50.840;3.396;2023-08-21T16:58:28;4.12;;;1.80;;